Time;durP1;ratioP1;P1;durP2;ratioP2;P2;SDS_P1;SDS_P2;PMS_P1;PMS_P2;Temp;Humidity;BMP_temperature;BMP_pressure;BME280_temperature;BME280_humidity;BME280_pressure;Samples;Min_cycle;Max_cycle;Signal;HPM_P1;HPM_P2
2021/04/17 04:02:35;;;;;;;7.95;6.15;;;3.60;47.50;;;;;;6227092;22;20612;-90
2021/04/17 04:05:03;;;;;;;8.63;6.38;;;3.90;47.20;;;;;;6223400;23;20539;-91
2021/04/17 04:07:29;;;;;;;7.43;6.30;;;3.90;47.30;;;;;;6223104;23;20215;-91
2021/04/17 04:10:05;;;;;;;6.97;6.27;;;4.00;46.90;;;;;;6222579;23;20157;-91
2021/04/17 04:12:31;;;;;;;7.68;6.63;;;3.90;47.00;;;;;;6223573;23;20160;-90
2021/04/17 04:14:56;;;;;;;7.13;6.43;;;4.20;47.10;;;;;;6223174;23;20154;-91
2021/04/17 04:17:23;;;;;;;6.73;6.03;;;4.20;47.10;;;;;;6222992;23;20193;-91
2021/04/17 04:19:49;;;;;;;8.95;8.05;;;4.10;47.00;;;;;;6223427;23;20150;-90
2021/04/17 04:22:14;;;;;;;8.40;7.50;;;4.40;47.40;;;;;;6222971;23;20560;-90
2021/04/17 04:24:40;;;;;;;11.23;8.87;;;4.40;47.40;;;;;;6223055;23;20192;-90
2021/04/17 04:27:06;;;;;;;11.50;9.57;;;4.50;47.60;;;;;;6223011;23;20171;-91
2021/04/17 04:29:32;;;;;;;11.25;9.20;;;4.30;47.60;;;;;;6223430;23;20695;-90
2021/04/17 04:31:58;;;;;;;9.60;8.60;;;4.20;47.50;;;;;;6223388;23;20178;-90
2021/04/17 04:34:23;;;;;;;8.63;7.20;;;4.40;47.70;;;;;;6222948;23;20157;-88
2021/04/17 04:36:49;;;;;;;7.27;6.57;;;4.60;47.70;;;;;;6222737;23;20556;-90
2021/04/17 04:39:15;;;;;;;7.23;6.53;;;4.80;47.80;;;;;;6222868;23;20149;-90
2021/04/17 04:41:40;;;;;;;13.50;7.20;;;4.50;47.40;;;;;;6222379;23;20150;-90
2021/04/17 04:44:06;;;;;;;7.90;7.10;;;4.50;47.30;;;;;;6222357;23;20168;-90
2021/04/17 04:46:32;;;;;;;6.43;5.83;;;4.40;46.90;;;;;;6222541;23;20157;-88
2021/04/17 04:48:58;;;;;;;6.47;5.88;;;4.50;46.60;;;;;;6221910;23;20153;-88
2021/04/17 04:51:24;;;;;;;7.97;7.10;;;4.20;46.10;;;;;;6221909;23;20204;-88
2021/04/17 04:53:51;;;;;;;7.83;7.13;;;4.30;46.40;;;;;;6222189;23;20619;-88
2021/04/17 04:56:16;;;;;;;7.82;6.68;;;4.30;46.50;;;;;;6222273;23;20416;-88
2021/04/17 04:58:42;;;;;;;7.33;6.60;;;5.40;47.00;;;;;;6222422;23;20206;-87
2021/04/17 05:01:08;;;;;;;8.03;7.27;;;4.50;46.30;;;;;;6223917;22;20207;-89
2021/04/17 05:03:33;;;;;;;7.77;7.07;;;5.00;46.20;;;;;;6253210;22;20164;-89
2021/04/17 05:05:59;;;;;;;9.20;7.70;;;4.60;45.90;;;;;;6253249;22;20655;-89
2021/04/17 05:08:25;;;;;;;9.37;8.47;;;4.70;45.90;;;;;;6253237;22;20236;-90
2021/04/17 05:10:50;;;;;;;9.03;7.63;;;4.60;46.40;;;;;;6253107;22;20224;-88
2021/04/17 05:13:16;;;;;;;10.10;9.13;;;5.30;47.10;;;;;;6252757;22;20152;-89
2021/04/17 05:15:42;;;;;;;10.10;7.97;;;5.30;46.60;;;;;;6252684;22;20469;-88
2021/04/17 05:18:07;;;;;;;8.07;7.37;;;4.90;46.50;;;;;;6252642;22;20486;-88
2021/04/17 05:20:34;;;;;;;7.67;6.93;;;4.90;46.10;;;;;;6253551;22;20173;-89
2021/04/17 05:23:00;;;;;;;7.20;6.25;;;4.80;45.50;;;;;;6252938;22;20584;-89
2021/04/17 05:25:31;;;;;;;8.73;6.50;;;5.20;45.10;;;;;;6279634;22;20139;-89
2021/04/17 05:27:57;;;;;;;7.07;6.43;;;5.70;45.40;;;;;;6252848;22;20244;-89
2021/04/17 05:30:24;;;;;;;10.13;8.50;;;5.30;44.40;;;;;;6252124;22;20160;-89
2021/04/17 05:32:49;;;;;;;8.05;6.82;;;5.20;44.20;;;;;;6252105;22;20502;-90
2021/04/17 05:35:52;;;;;;;7.83;7.00;;;4.80;45.60;;;;;;6252372;22;20153;-94
2021/04/17 05:38:18;;;;;;;8.05;7.25;;;4.80;46.00;;;;;;6253358;22;20164;-92
2021/04/17 05:40:44;;;;;;;10.33;7.70;;;5.20;46.00;;;;;;6253016;22;20157;-91
2021/04/17 05:46:31;;;;;;;9.15;7.50;;;5.60;45.30;;;;;;6281208;22;20204;-93
2021/04/17 05:52:20;;;;;;;9.18;8.30;;;5.90;44.40;;;;;;6284801;22;20205;-92
2021/04/17 05:58:07;;;;;;;8.35;7.55;;;6.50;43.80;;;;;;6282008;22;20172;-93
2021/04/17 06:07:31;;;;;;;7.47;6.55;;;6.60;42.80;;;;;;6281161;22;20240;-92
2021/04/17 06:13:19;;;;;;;8.77;7.97;;;6.70;41.60;;;;;;6281535;22;20212;-94
2021/04/17 06:19:07;;;;;;;9.27;8.43;;;7.00;41.30;;;;;;6282375;22;20168;-94
2021/04/17 06:24:55;;;;;;;11.05;8.07;;;6.90;41.30;;;;;;6281472;22;20136;-94
2021/04/17 06:30:43;;;;;;;10.00;9.00;;;7.10;40.90;;;;;;6286974;22;20136;-94
2021/04/17 06:33:12;;;;;;;9.07;8.20;;;7.40;40.70;;;;;;6262095;22;20149;-93
2021/04/17 06:35:38;;;;;;;9.65;8.73;;;7.30;40.60;;;;;;6254383;22;20896;-93
2021/04/17 06:38:05;;;;;;;9.55;8.65;;;7.50;40.40;;;;;;6260798;22;20600;-94
2021/04/17 06:41:18;;;;;;;9.80;8.90;;;7.80;40.40;;;;;;6256617;22;20149;-93
2021/04/17 06:43:45;;;;;;;10.98;9.82;;;7.70;40.00;;;;;;6254327;22;20141;-91
2021/04/17 06:46:13;;;;;;;11.18;10.00;;;8.20;40.00;;;;;;6252171;22;20145;-94
2021/04/17 06:48:39;;;;;;;10.63;9.60;;;7.80;38.40;;;;;;6252248;22;20177;-92
2021/04/17 06:51:13;;;;;;;10.60;9.40;;;8.00;39.30;;;;;;6251839;22;20152;-91
2021/04/17 06:53:41;;;;;;;8.98;8.18;;;8.20;39.30;;;;;;6251862;22;20149;-94
2021/04/17 06:56:08;;;;;;;9.10;8.20;;;8.50;39.10;;;;;;6251712;22;20184;-93
2021/04/17 06:58:35;;;;;;;11.45;10.23;;;8.50;38.50;;;;;;6252136;22;20210;-94
2021/04/17 07:01:02;;;;;;;10.52;9.52;;;8.40;37.50;;;;;;6252128;22;20148;-93
2021/04/17 07:03:29;;;;;;;9.90;9.00;;;8.70;37.20;;;;;;6255945;22;20189;-93
2021/04/17 07:05:54;;;;;;;9.50;8.65;;;9.30;38.00;;;;;;6247180;23;20181;-91
2021/04/17 07:08:20;;;;;;;9.03;8.23;;;9.10;37.80;;;;;;6247038;23;20156;-92
2021/04/17 07:10:46;;;;;;;10.07;9.10;;;8.50;37.00;;;;;;6246922;23;20156;-93
2021/04/17 07:13:14;;;;;;;10.43;9.50;;;9.30;37.10;;;;;;6246971;23;20158;-92
2021/04/17 07:15:41;;;;;;;9.55;8.65;;;9.30;36.90;;;;;;6246105;23;20177;-92
2021/04/17 07:18:25;;;;;;;11.05;8.85;;;9.60;37.00;;;;;;6247961;23;20472;-93
2021/04/17 07:20:52;;;;;;;11.63;10.43;;;10.10;35.20;;;;;;6249200;23;20154;-92
2021/04/17 07:23:33;;;;;;;13.57;12.48;;;9.60;35.90;;;;;;6247088;23;20469;-93
2021/04/17 07:26:20;;;;;;;10.57;9.57;;;9.70;35.60;;;;;;6247188;23;20220;-93
2021/04/17 07:28:55;;;;;;;12.02;10.77;;;10.00;34.20;;;;;;6247768;23;20165;-93
2021/04/17 07:31:26;;;;;;;11.73;10.60;;;9.70;35.00;;;;;;6248274;23;20157;-93
2021/04/17 07:34:14;;;;;;;10.27;9.27;;;9.70;35.20;;;;;;6227124;23;20150;-93
2021/04/17 07:36:57;;;;;;;11.82;10.63;;;9.70;35.30;;;;;;6245756;23;20192;-91
2021/04/17 07:39:40;;;;;;;10.82;9.90;;;9.70;35.50;;;;;;6244576;23;20377;-90
2021/04/17 07:42:09;;;;;;;13.77;12.45;;;9.70;36.10;;;;;;6244865;23;20473;-91
2021/04/17 07:44:38;;;;;;;11.35;10.35;;;9.90;35.80;;;;;;6244671;23;20146;-90
2021/04/17 07:47:05;;;;;;;11.43;10.40;;;10.40;35.60;;;;;;6245838;23;20154;-89
2021/04/17 07:49:32;;;;;;;11.65;10.45;;;10.20;35.60;;;;;;6246826;23;20150;-91
2021/04/17 07:52:02;;;;;;;12.10;10.93;;;10.40;35.20;;;;;;6258317;23;20153;-92
2021/04/17 07:54:29;;;;;;;12.27;10.32;;;10.80;33.90;;;;;;6246996;23;20213;-92
2021/04/17 07:56:55;;;;;;;10.43;9.48;;;10.90;33.30;;;;;;6247897;23;20243;-90
2021/04/17 07:59:24;;;;;;;12.38;11.25;;;10.60;33.70;;;;;;6247614;23;20146;-91
2021/04/17 08:01:51;;;;;;;13.13;11.82;;;10.60;33.20;;;;;;6246977;23;20150;-90
2021/04/17 08:04:28;;;;;;;14.15;12.75;;;10.80;33.20;;;;;;6247965;23;20198;-89
2021/04/17 08:06:58;;;;;;;11.25;10.23;;;10.60;33.60;;;;;;6246821;23;20161;-91
2021/04/17 08:09:26;;;;;;;11.48;10.38;;;10.60;33.90;;;;;;6250958;23;20204;-91
2021/04/17 08:11:55;;;;;;;12.30;11.20;;;11.10;34.60;;;;;;6246596;23;20154;-89
2021/04/17 08:14:23;;;;;;;12.85;11.70;;;11.20;33.50;;;;;;6248494;23;20161;-95
2021/04/17 08:16:50;;;;;;;14.82;12.63;;;11.20;34.20;;;;;;6248274;23;20185;-91
2021/04/17 08:19:17;;;;;;;13.52;12.00;;;11.60;33.30;;;;;;6246069;23;20603;-91
2021/04/17 08:21:54;;;;;;;13.50;12.20;;;11.60;33.20;;;;;;6246426;23;20154;-93
2021/04/17 08:24:25;;;;;;;14.95;13.38;;;12.00;33.30;;;;;;6248428;23;20146;-92
2021/04/17 08:26:59;;;;;;;16.83;14.32;;;12.00;32.80;;;;;;6250841;23;20165;-93
2021/04/17 08:29:44;;;;;;;14.00;12.60;;;11.70;32.00;;;;;;6250845;23;20368;-93
2021/04/17 08:32:31;;;;;;;13.63;12.27;;;12.30;33.70;;;;;;6248963;23;20276;-92
2021/04/17 08:34:58;;;;;;;16.43;13.90;;;12.60;33.30;;;;;;6251188;23;20380;-91
2021/04/17 08:37:26;;;;;;;16.10;14.40;;;12.60;31.50;;;;;;6251472;23;20420;-92
2021/04/17 08:39:54;;;;;;;18.08;16.27;;;12.20;31.60;;;;;;6250998;23;20412;-92
2021/04/17 08:43:13;;;;;;;17.60;15.80;;;12.00;31.40;;;;;;6250802;23;20149;-92
2021/04/17 08:46:17;;;;;;;17.08;15.13;;;12.00;32.40;;;;;;6248960;23;20225;-91
2021/04/17 08:49:08;;;;;;;17.15;15.43;;;12.00;32.70;;;;;;6251268;23;20167;-94
2021/04/17 08:51:38;;;;;;;17.20;15.60;;;12.00;32.70;;;;;;6264547;23;20418;-93
2021/04/17 08:54:08;;;;;;;16.40;14.00;;;12.10;33.40;;;;;;6265444;23;20146;-92
2021/04/17 08:59:43;;;;;;;14.93;13.50;;;12.40;32.20;;;;;;6264990;22;20153;-93
2021/04/17 09:02:14;;;;;;;15.32;13.82;;;12.10;31.80;;;;;;6256948;23;20368;-92
2021/04/17 09:04:58;;;;;;;14.52;13.02;;;12.40;32.40;;;;;;6251490;23;20190;-91
2021/04/17 09:07:44;;;;;;;15.50;13.90;;;12.50;32.90;;;;;;6254347;23;20176;-91
2021/04/17 09:10:31;;;;;;;14.37;12.87;;;12.90;33.10;;;;;;6249297;23;20210;-90
2021/04/17 09:13:09;;;;;;;15.57;13.98;;;13.00;32.50;;;;;;6250238;23;20423;-91
2021/04/17 09:19:35;;;;;;;12.97;11.67;;;13.50;31.60;;;;;;6269013;23;20368;-92
2021/04/17 09:25:37;;;;;;;11.60;10.50;;;13.60;29.40;;;;;;6269259;23;20337;-92
2021/04/17 09:31:28;;;;;;;11.83;10.63;;;13.70;27.30;;;;;;6268213;23;20401;-92
2021/04/17 09:37:18;;;;;;;9.70;8.70;;;13.50;26.90;;;;;;6253329;23;20511;-90
2021/04/17 09:39:57;;;;;;;9.63;7.87;;;13.70;27.90;;;;;;6256447;23;20392;-90
2021/04/17 09:42:38;;;;;;;9.20;8.30;;;13.80;27.70;;;;;;6265681;23;20156;-93
2021/04/17 09:45:11;;;;;;;8.23;7.47;;;14.00;27.20;;;;;;6268184;22;20373;-92
2021/04/17 09:51:05;;;;;;;10.43;9.33;;;14.00;26.10;;;;;;6264404;23;20332;-90
2021/04/17 09:56:58;;;;;;;6.60;6.00;;;14.70;24.90;;;;;;6262945;23;20408;-90
2021/04/17 10:09:31;;;;;;;5.43;4.93;;;13.30;25.20;;;;;;6200089;23;20354;-91
2021/04/17 10:15:24;;;;;;;7.27;6.30;;;13.30;25.40;;;;;;6199885;23;20174;-92
2021/04/17 10:21:14;;;;;;;10.33;7.23;;;12.70;26.80;;;;;;6194247;23;20416;-92
2021/04/17 10:27:08;;;;;;;6.40;5.80;;;12.70;27.00;;;;;;6188953;23;20142;-91
2021/04/17 10:32:55;;;;;;;6.53;4.93;;;12.50;26.20;;;;;;6200673;23;20888;-92
2021/04/17 10:38:43;;;;;;;5.73;5.13;;;13.10;26.00;;;;;;6296453;22;20148;-92
2021/04/17 10:44:32;;;;;;;5.70;3.83;;;13.20;25.80;;;;;;6301351;22;20343;-90
2021/04/17 10:47:36;;;;;;;4.03;3.63;;;13.10;23.60;;;;;;6267755;22;20406;-94
2021/04/17 10:57:47;;;;;;;6.40;5.83;;;13.20;24.50;;;;;;6302198;22;20414;-90
2021/04/17 12:57:47;;;;;;;5.30;4.80;;;15.00;21.90;;;;;;6283718;22;20996;-90
2021/04/17 13:00:13;;;;;;;5.63;5.13;;;15.10;21.40;;;;;;6259518;22;20487;-90
2021/04/17 13:03:01;;;;;;;5.57;5.07;;;15.10;21.50;;;;;;6268010;22;20490;-89
2021/04/17 13:05:27;;;;;;;5.00;4.60;;;15.10;22.40;;;;;;6257284;22;20527;-91
2021/04/17 13:07:54;;;;;;;5.27;4.77;;;14.70;22.20;;;;;;6287976;22;20360;-89
2021/04/17 13:10:20;;;;;;;5.33;4.83;;;15.10;22.50;;;;;;6253688;22;20181;-90
2021/04/17 13:13:25;;;;;;;6.13;4.53;;;15.00;21.40;;;;;;6256555;22;20379;-91
2021/04/17 13:15:51;;;;;;;6.03;5.20;;;14.70;20.90;;;;;;6254979;22;20152;-91
2021/04/17 13:18:18;;;;;;;4.90;3.97;;;14.80;21.30;;;;;;6253913;22;20423;-89
2021/04/17 13:20:44;;;;;;;5.07;4.57;;;14.80;21.90;;;;;;6253855;22;20145;-91
2021/04/17 13:23:32;;;;;;;5.67;5.17;;;14.70;20.50;;;;;;6256590;22;20394;-91
2021/04/17 13:25:58;;;;;;;5.60;4.90;;;14.60;21.20;;;;;;6260968;22;20376;-90
2021/04/17 13:28:24;;;;;;;4.70;4.30;;;14.50;22.00;;;;;;6266427;22;20372;-90
2021/04/17 13:34:13;;;;;;;7.00;5.17;;;14.40;22.50;;;;;;6300999;22;20349;-93
2021/04/17 13:40:03;;;;;;;4.93;4.53;;;14.40;23.30;;;;;;6300224;22;20363;-92
2021/04/17 13:45:53;;;;;;;5.50;5.00;;;14.30;23.20;;;;;;6282393;22;20408;-90
2021/04/17 13:51:41;;;;;;;5.43;4.93;;;14.20;23.10;;;;;;6289670;22;20355;-92
2021/04/17 14:04:39;;;;;;;5.47;4.97;;;14.70;23.70;;;;;;6299645;22;20347;-91
2021/04/17 14:10:28;;;;;;;4.27;3.87;;;14.20;23.90;;;;;;6297833;22;20347;-92
2021/04/17 14:16:17;;;;;;;5.17;4.67;;;13.80;23.50;;;;;;6299549;22;20940;-92
2021/04/17 14:19:36;;;;;;;6.10;5.10;;;14.10;23.80;;;;;;6273710;22;20387;-93
2021/04/17 14:22:02;;;;;;;5.07;4.60;;;14.10;23.60;;;;;;6273009;22;20376;-89
2021/04/17 14:24:29;;;;;;;6.10;5.20;;;14.50;23.20;;;;;;6273136;22;20379;-92
2021/04/17 14:30:17;;;;;;;7.40;4.07;;;14.30;23.00;;;;;;6295534;22;20339;-92
2021/04/17 14:36:06;;;;;;;4.63;4.23;;;14.40;23.40;;;;;;6290313;22;20354;-90
2021/04/17 14:41:55;;;;;;;6.70;6.10;;;14.30;23.10;;;;;;6285876;22;20352;-95
2021/04/17 14:44:40;;;;;;;6.10;4.60;;;14.30;23.70;;;;;;6256275;22;20391;-96
2021/04/17 14:47:06;;;;;;;5.50;4.97;;;14.40;23.20;;;;;;6257194;22;20175;-91
2021/04/17 14:49:40;;;;;;;10.50;6.60;;;14.40;22.90;;;;;;6253976;22;20749;-92
2021/04/17 14:52:06;;;;;;;9.07;4.87;;;14.50;23.20;;;;;;6253475;22;20429;-94
2021/04/17 14:54:32;;;;;;;6.13;4.77;;;14.30;22.90;;;;;;6254254;22;20384;-94
2021/04/17 14:56:59;;;;;;;6.60;5.30;;;14.50;22.60;;;;;;6253243;22;20626;-93
2021/04/17 14:59:40;;;;;;;5.17;4.67;;;14.60;22.50;;;;;;6253647;22;20384;-92
2021/04/17 15:02:08;;;;;;;6.13;3.90;;;14.50;22.50;;;;;;6252335;22;20418;-93
2021/04/17 15:04:33;;;;;;;5.40;5.00;;;14.70;22.60;;;;;;6253454;22;20395;-93
2021/04/17 15:17:06;;;;;;;4.47;4.07;;;15.10;22.20;;;;;;6284707;22;20415;-91
2021/04/17 15:22:54;;;;;;;3.87;3.57;;;15.10;22.30;;;;;;6285445;22;20179;-89
2021/04/17 15:25:37;;;;;;;4.77;4.37;;;14.60;22.70;;;;;;6256840;22;20470;-90
2021/04/17 15:28:03;;;;;;;5.03;4.50;;;14.40;23.00;;;;;;6261112;22;20153;-89
2021/04/17 15:30:29;;;;;;;5.43;4.30;;;14.10;22.80;;;;;;6261719;22;20384;-91
2021/04/17 15:36:19;;;;;;;4.67;4.17;;;14.30;23.10;;;;;;6297805;22;20458;-90
2021/04/17 15:45:29;;;;;;;15.70;6.67;;;14.40;22.50;;;;;;6292000;22;20340;-91
2021/04/17 15:51:17;;;;;;;5.70;5.10;;;14.50;22.50;;;;;;6295296;22;20351;-90
2021/04/17 16:16:49;;;;;;;3.77;2.77;;;14.00;23.20;;;;;;6299685;22;20426;-92
2021/04/17 16:22:37;;;;;;;3.67;3.17;;;14.10;23.20;;;;;;6297634;22;20339;-90
2021/04/17 16:26:00;;;;;;;4.10;3.67;;;14.60;24.00;;;;;;6274176;22;20405;-91
2021/04/17 16:28:31;;;;;;;3.93;2.90;;;14.50;22.90;;;;;;6274970;22;20384;-91
2021/04/17 16:30:57;;;;;;;3.87;3.27;;;14.60;22.60;;;;;;6249684;22;20401;-91
2021/04/17 16:40:12;;;;;;;4.13;3.83;;;14.40;23.10;;;;;;6287030;22;20396;-92
2021/04/17 16:46:00;;;;;;;3.60;3.30;;;13.80;24.20;;;;;;6290935;22;20347;-90
2021/04/17 16:51:48;;;;;;;5.23;3.47;;;13.70;25.00;;;;;;6288197;22;20185;-90
2021/04/17 16:57:37;;;;;;;3.07;2.87;;;13.50;25.00;;;;;;6299368;22;20411;-93
2021/04/17 17:07:27;;;;;;;5.72;5.22;;;13.50;25.00;;;;;;6290119;22;20374;-94
2021/04/17 17:13:16;;;;;;;3.43;3.03;;;13.60;25.60;;;;;;6296283;22;20339;-92
2021/04/17 17:25:20;;;;;;;4.00;3.08;;;13.20;26.30;;;;;;6300407;22;20355;-92
2021/04/17 17:31:08;;;;;;;3.78;3.38;;;12.80;27.00;;;;;;6293834;22;20826;-93
2021/04/17 17:34:27;;;;;;;4.67;4.27;;;12.90;27.90;;;;;;6267679;22;20145;-92
2021/04/17 17:36:52;;;;;;;4.80;3.08;;;12.90;27.70;;;;;;6258776;22;20165;-92
2021/04/17 17:39:18;;;;;;;3.33;3.03;;;12.80;27.80;;;;;;6260056;22;20478;-92
2021/04/17 17:42:17;;;;;;;4.63;3.37;;;12.90;27.90;;;;;;6258737;22;20145;-92
2021/04/17 17:44:52;;;;;;;3.47;3.13;;;12.90;27.80;;;;;;6266005;22;20176;-95
2021/04/17 17:47:34;;;;;;;13.13;3.78;;;12.90;28.40;;;;;;6244255;22;20384;-92
2021/04/17 17:53:22;;;;;;;4.40;3.00;;;12.40;30.20;;;;;;6284226;22;20379;-93
2021/04/17 17:59:10;;;;;;;6.43;5.82;;;12.90;30.60;;;;;;6284266;22;20362;-94
2021/04/17 18:01:38;;;;;;;6.25;2.90;;;12.50;30.90;;;;;;6257753;22;20125;-93
2021/04/17 18:04:04;;;;;;;3.23;2.93;;;12.30;31.60;;;;;;6256621;22;20200;-91
2021/04/17 18:06:31;;;;;;;3.50;2.97;;;12.40;31.90;;;;;;6257424;22;20392;-92
2021/04/17 19:57:59;;;;;;;6.10;5.60;;;10.60;44.10;;;;;;6004866;23;3780452;-92
2021/04/17 20:00:25;;;;;;;7.00;4.90;;;10.40;45.80;;;;;;6129697;23;20606;-92
2021/04/17 20:02:51;;;;;;;5.57;5.00;;;10.30;45.50;;;;;;6129622;23;20153;-93
2021/04/17 20:05:52;;;;;;;5.97;4.77;;;10.20;45.20;;;;;;6131887;23;20180;-95
2021/04/17 20:08:17;;;;;;;6.40;5.38;;;10.30;45.40;;;;;;6129951;23;20147;-93
2021/04/17 20:10:43;;;;;;;6.47;5.30;;;10.30;45.30;;;;;;6130308;23;20168;-94
2021/04/17 20:13:09;;;;;;;8.63;6.20;;;10.20;45.60;;;;;;6135070;23;20171;-94
2021/04/17 20:15:55;;;;;;;12.50;8.30;;;10.20;45.90;;;;;;6104960;23;20235;-93
2021/04/17 20:18:22;;;;;;;14.13;9.88;;;10.30;45.90;;;;;;6110047;23;20410;-94
2021/04/17 20:20:55;;;;;;;9.27;8.10;;;10.70;46.10;;;;;;6108059;23;20223;-91
2021/04/17 20:23:21;;;;;;;7.05;6.38;;;10.30;45.80;;;;;;6110791;23;20157;-92
2021/04/17 20:25:47;;;;;;;7.97;5.53;;;10.20;45.70;;;;;;6115184;23;20176;-91
2021/04/17 20:28:13;;;;;;;6.18;5.65;;;10.50;46.80;;;;;;6119221;23;20144;-91
2021/04/17 20:30:39;;;;;;;6.13;5.53;;;10.20;46.80;;;;;;6107215;23;20693;-91
2021/04/17 20:33:06;;;;;;;7.13;6.00;;;10.60;47.30;;;;;;6130467;23;20156;-92
2021/04/17 20:35:32;;;;;;;8.88;6.35;;;10.50;46.70;;;;;;6129442;23;20156;-91
2021/04/17 20:37:57;;;;;;;6.50;4.77;;;10.30;46.30;;;;;;6105980;23;20167;-91
2021/04/17 20:40:23;;;;;;;7.20;5.30;;;10.50;46.90;;;;;;6106587;23;20153;-91
2021/04/17 20:42:51;;;;;;;5.03;4.53;;;10.60;47.00;;;;;;6105322;23;20149;-91
2021/04/17 20:45:17;;;;;;;6.18;5.47;;;10.50;46.60;;;;;;6104316;23;20443;-92
2021/04/17 20:47:43;;;;;;;5.40;4.70;;;10.60;46.40;;;;;;6102002;23;20174;-89
2021/04/17 20:50:10;;;;;;;5.83;5.33;;;10.80;46.30;;;;;;6103493;23;20144;-90
2021/04/17 20:52:37;;;;;;;6.47;5.60;;;10.70;45.90;;;;;;6103530;23;20372;-90
2021/04/17 20:55:04;;;;;;;7.25;5.38;;;10.70;45.70;;;;;;6104775;23;20145;-90
2021/04/17 20:57:29;;;;;;;6.20;5.55;;;11.00;45.70;;;;;;6103804;23;20274;-91
2021/04/17 20:59:55;;;;;;;4.93;4.53;;;10.50;43.90;;;;;;6104311;23;20152;-89
